createdAt,value
2023-04-20T00:00:38.562Z,91.8074
2023-04-20T00:01:40.246Z,91.9554
2023-04-20T00:02:42.362Z,91.3697
2023-04-20T00:03:44.556Z,91.1534
2023-04-20T00:04:46.480Z,91.2615
2023-04-20T00:05:48.178Z,91.3936
2023-04-20T00:06:49.875Z,91.5073
2023-04-20T00:07:51.607Z,91.9343
2023-04-20T00:08:53.322Z,92.0939
2023-04-20T00:09:55.164Z,91.8689
2023-04-20T00:10:57.016Z,91.8851
2023-04-20T00:11:58.796Z,92.0317
2023-04-20T00:13:00.469Z,91.9610
2023-04-20T00:14:02.152Z,91.7140
2023-04-20T00:15:03.848Z,91.6630
2023-04-20T00:16:05.579Z,91.6149
2023-04-20T00:17:07.450Z,91.9429
2023-04-20T00:18:09.170Z,92.0707
2023-04-20T00:19:10.863Z,92.0792
2023-04-20T00:20:12.559Z,92.2299
2023-04-20T00:21:14.324Z,91.9859
2023-04-20T00:22:16.007Z,91.9454
2023-04-20T00:23:17.651Z,91.9397
2023-04-20T00:24:19.318Z,92.2251
2023-04-20T00:25:20.949Z,92.1569
2023-04-20T00:26:22.658Z,92.2217
2023-04-20T00:27:24.404Z,92.5783
2023-04-20T00:28:26.124Z,92.2468
2023-04-20T00:29:27.846Z,91.8514
2023-04-20T00:30:29.511Z,91.9947
2023-04-20T00:31:31.201Z,92.3036
2023-04-20T00:32:32.911Z,92.2809
2023-04-20T00:33:34.710Z,91.9634
2023-04-20T00:34:36.429Z,92.1567
2023-04-20T00:35:38.140Z,92.3301
2023-04-20T00:36:39.861Z,92.3355
2023-04-20T00:37:41.567Z,92.3150
2023-04-20T00:38:43.230Z,92.4212
2023-04-20T00:39:44.949Z,92.8133
2023-04-20T00:40:46.680Z,92.5341
2023-04-20T00:41:48.348Z,92.5701
2023-04-20T00:42:50.034Z,92.7311
2023-04-20T00:43:51.871Z,92.6984
2023-04-20T00:44:53.591Z,92.0618
2023-04-20T00:45:55.279Z,92.0581
2023-04-20T00:46:56.967Z,91.7320
2023-04-20T00:47:58.703Z,91.7631
2023-04-20T00:49:00.410Z,92.1776
2023-04-20T00:50:02.160Z,92.0009
2023-04-20T00:51:03.873Z,91.9233
2023-04-20T00:52:05.588Z,91.7833
2023-04-20T00:53:07.297Z,91.7029
2023-04-20T00:54:09.092Z,91.3417
2023-04-20T00:55:10.729Z,91.9847
2023-04-20T00:56:12.457Z,91.5419
2023-04-20T00:57:14.126Z,91.6010
2023-04-20T00:58:15.817Z,91.8282
2023-04-20T00:59:17.682Z,91.5161
2023-04-20T01:00:19.573Z,91.5401
2023-04-20T01:01:21.298Z,91.3803
2023-04-20T01:02:23.114Z,91.3867
2023-04-20T01:03:25.105Z,91.6324
2023-04-20T01:04:26.902Z,91.6733
2023-04-20T01:05:28.636Z,91.7465
2023-04-20T01:06:30.344Z,91.7410
2023-04-20T01:07:32.084Z,91.7129
2023-04-20T01:08:33.858Z,91.8803
2023-04-20T01:09:35.585Z,92.0286
2023-04-20T01:10:37.309Z,91.6988
2023-04-20T01:11:39.010Z,91.6389
2023-04-20T01:12:40.678Z,92.0948
2023-04-20T01:13:42.424Z,92.1163
2023-04-20T01:14:44.129Z,91.7889
2023-04-20T01:15:45.880Z,92.0393
2023-04-20T01:16:47.586Z,92.3680
2023-04-20T01:17:49.338Z,92.0118
2023-04-20T01:18:51.106Z,92.2230
2023-04-20T01:19:52.784Z,92.7192
2023-04-20T01:20:54.558Z,92.6476
2023-04-20T01:21:56.238Z,92.1778
2023-04-20T01:22:58.139Z,91.9401
2023-04-20T01:23:59.874Z,91.7654
2023-04-20T01:25:01.695Z,91.6467
2023-04-20T01:26:03.368Z,91.7770
2023-04-20T01:27:05.106Z,91.9275
2023-04-20T01:28:06.823Z,92.2952
2023-04-20T01:29:08.574Z,91.8896
2023-04-20T01:30:10.289Z,91.9554
2023-04-20T01:31:12.012Z,92.0155
2023-04-20T01:32:13.660Z,92.0151
2023-04-20T01:33:15.541Z,91.8740
2023-04-20T01:34:17.203Z,91.9883
2023-04-20T01:35:19.016Z,91.8252
2023-04-20T01:36:20.712Z,91.8165
2023-04-20T01:37:23.336Z,91.6976
2023-04-20T01:38:25.147Z,91.9654
2023-04-20T01:39:26.941Z,91.7654
2023-04-20T01:40:28.667Z,91.9910
2023-04-20T01:41:30.390Z,92.0920
2023-04-20T01:42:32.084Z,92.0301
2023-04-20T01:43:33.803Z,91.6787
2023-04-20T01:44:35.509Z,91.7081
2023-04-20T01:45:37.263Z,91.9335
2023-04-20T01:46:38.975Z,92.0346
2023-04-20T01:47:40.751Z,92.3136
2023-04-20T01:48:42.431Z,92.4788
2023-04-20T01:49:44.151Z,92.4110
2023-04-20T01:50:45.860Z,92.1299
2023-04-20T01:51:47.559Z,92.3652
2023-04-20T01:52:49.241Z,91.9163
2023-04-20T01:53:50.953Z,92.1484
2023-04-20T01:54:52.752Z,92.4859
2023-04-20T01:55:54.451Z,92.4924
2023-04-20T01:56:56.175Z,92.1605
2023-04-20T01:57:57.967Z,92.1392
2023-04-20T01:58:59.666Z,92.2536
2023-04-20T02:00:01.368Z,91.9961
2023-04-20T02:01:03.133Z,91.9877
2023-04-20T02:02:04.934Z,91.9286
2023-04-20T02:03:06.821Z,92.0248
2023-04-20T02:04:08.725Z,92.4580
2023-04-20T02:05:10.479Z,92.1626
2023-04-20T02:06:12.238Z,92.3028
2023-04-20T02:07:13.967Z,92.1468
2023-04-20T02:08:15.734Z,92.0541
2023-04-20T02:09:17.652Z,92.2385
2023-04-20T02:10:19.501Z,92.4216
2023-04-20T02:11:21.228Z,92.2051
2023-04-20T02:12:23.001Z,92.6638
2023-04-20T02:13:24.805Z,92.7032
2023-04-20T02:14:26.569Z,92.5693
2023-04-20T02:15:28.327Z,92.8806
2023-04-20T02:16:30.088Z,92.6845
2023-04-20T02:17:31.949Z,92.6541
2023-04-20T02:18:33.650Z,92.5882
2023-04-20T02:19:35.424Z,91.9577
2023-04-20T02:20:37.144Z,91.7810
2023-04-20T02:21:39.088Z,91.7452
2023-04-20T02:22:40.861Z,92.4867
2023-04-20T02:23:42.676Z,92.8615
2023-04-20T02:24:44.444Z,93.1056
2023-04-20T02:25:46.135Z,92.9713
2023-04-20T02:26:47.861Z,92.1312
2023-04-20T02:27:49.613Z,92.3778
2023-04-20T02:28:51.334Z,92.6921
2023-04-20T02:29:53.048Z,92.4306
2023-04-20T02:30:54.854Z,92.0290
2023-04-20T02:31:56.574Z,92.2807
2023-04-20T02:32:58.371Z,92.3673
2023-04-20T02:34:00.153Z,92.2324
2023-04-20T02:35:01.840Z,92.6335
2023-04-20T02:36:03.583Z,92.8880
2023-04-20T02:37:05.427Z,92.7620
2023-04-20T02:38:07.237Z,92.3554
2023-04-20T02:39:08.967Z,92.3484
2023-04-20T02:40:10.735Z,92.5413
2023-04-20T02:41:12.486Z,92.4331
2023-04-20T02:42:14.311Z,91.9318
2023-04-20T02:43:16.180Z,91.8471
2023-04-20T02:44:17.922Z,91.8675
2023-04-20T02:45:19.742Z,91.8863
2023-04-20T02:46:21.576Z,92.1529
2023-04-20T02:47:23.418Z,92.1157
2023-04-20T02:48:25.181Z,92.2566
2023-04-20T02:49:27.167Z,92.0516
2023-04-20T02:50:28.929Z,92.3646
2023-04-20T02:51:30.670Z,92.3486
2023-04-20T02:52:32.467Z,92.2752
2023-04-20T02:53:34.290Z,92.0491
2023-04-20T02:54:36.031Z,92.2250
2023-04-20T02:55:37.874Z,91.8723
2023-04-20T02:56:39.628Z,91.4349
2023-04-20T02:57:41.431Z,91.2464
2023-04-20T02:58:43.180Z,90.9967
2023-04-20T02:59:44.920Z,91.0964
2023-04-20T03:00:46.661Z,90.9911
2023-04-20T03:01:48.468Z,91.4017
2023-04-20T03:02:50.335Z,91.6408
2023-04-20T03:03:52.566Z,91.7736
2023-04-20T03:04:54.513Z,91.8464
2023-04-20T03:05:56.788Z,91.7751
2023-04-20T03:06:58.701Z,92.0845
2023-04-20T03:08:00.412Z,91.6929
2023-04-20T03:09:02.182Z,91.5163
2023-04-20T03:10:03.937Z,91.5813
2023-04-20T03:11:05.712Z,91.4177
2023-04-20T03:12:07.475Z,91.2383
2023-04-20T03:13:09.247Z,91.1888
2023-04-20T03:14:11.025Z,91.2019
2023-04-20T03:15:12.772Z,91.1224
2023-04-20T03:16:14.561Z,91.1644
2023-04-20T03:17:16.250Z,90.9876
2023-04-20T03:18:18.030Z,91.1857
2023-04-20T03:19:19.916Z,91.4052
2023-04-20T03:20:21.741Z,91.7412
2023-04-20T03:21:23.494Z,91.6361
2023-04-20T03:22:25.243Z,91.6414
2023-04-20T03:23:27.058Z,91.8973
2023-04-20T03:24:28.761Z,91.6716
2023-04-20T03:25:30.552Z,91.3692
2023-04-20T03:26:32.442Z,91.5182
2023-04-20T03:27:34.259Z,92.1737
2023-04-20T03:28:36.006Z,92.3421
2023-04-20T03:29:37.741Z,91.8910
2023-04-20T03:30:39.421Z,91.5511
2023-04-20T03:31:41.213Z,91.8322
2023-04-20T03:32:43.035Z,91.8693
2023-04-20T03:33:44.779Z,91.5120
2023-04-20T03:34:46.508Z,91.3208
2023-04-20T03:35:48.339Z,91.1734
2023-04-20T03:36:50.054Z,91.1731
2023-04-20T03:37:51.787Z,91.1333
2023-04-20T03:38:53.494Z,90.9592
2023-04-20T03:39:55.213Z,91.1824
2023-04-20T03:40:56.950Z,91.1742
2023-04-20T03:41:58.684Z,91.3126
2023-04-20T03:43:00.447Z,91.2492
2023-04-20T03:44:02.182Z,91.5833
2023-04-20T03:45:03.999Z,92.0443
2023-04-20T03:46:05.777Z,92.0982
2023-04-20T03:47:07.609Z,92.0144
2023-04-20T03:48:09.384Z,92.2696
2023-04-20T03:49:11.197Z,92.7081
2023-04-20T03:50:13.204Z,92.5130
2023-04-20T03:51:14.973Z,92.3644
2023-04-20T03:52:16.799Z,92.6460
2023-04-20T03:53:18.620Z,92.6631
2023-04-20T03:54:20.457Z,92.8468
2023-04-20T03:55:22.220Z,93.0370
2023-04-20T03:56:24.040Z,92.8655
2023-04-20T03:57:25.836Z,92.7946
2023-04-20T03:58:27.565Z,92.8072
2023-04-20T03:59:29.321Z,92.8111
2023-04-20T04:00:31.070Z,92.9809
2023-04-20T04:01:32.874Z,92.8951
2023-04-20T04:02:37.564Z,92.7108
2023-04-20T04:03:37.404Z,92.4514
2023-04-20T04:04:39.568Z,92.6382
2023-04-20T04:05:41.324Z,92.6801
2023-04-20T04:06:43.227Z,92.6891
2023-04-20T04:07:45.158Z,92.9689
2023-04-20T04:08:46.932Z,93.0668
2023-04-20T04:09:48.634Z,93.0070
2023-04-20T04:10:50.380Z,92.5955
2023-04-20T04:11:52.116Z,92.6485
2023-04-20T04:12:53.902Z,92.8174
2023-04-20T04:13:55.675Z,92.5927
2023-04-20T04:14:57.450Z,92.5130
2023-04-20T04:15:59.290Z,92.5616
2023-04-20T04:17:01.167Z,92.7862
2023-04-20T04:18:02.927Z,92.8763
2023-04-20T04:19:04.763Z,93.1927
2023-04-20T04:20:06.533Z,92.8819
2023-04-20T04:21:08.334Z,92.8903
2023-04-20T04:22:10.154Z,93.1098
2023-04-20T04:23:11.895Z,93.1354
2023-04-20T04:24:13.770Z,93.5244
2023-04-20T04:25:15.547Z,93.6807
2023-04-20T04:26:17.332Z,93.5621
2023-04-20T04:27:19.225Z,93.4397
2023-04-20T04:28:21.063Z,93.6059
2023-04-20T04:29:22.855Z,93.7329
2023-04-20T04:30:24.626Z,93.6823
2023-04-20T04:31:26.484Z,93.6323
2023-04-20T04:32:28.458Z,93.5740
2023-04-20T04:33:30.235Z,93.5150
2023-04-20T04:34:31.987Z,93.3484
2023-04-20T04:35:33.867Z,93.2348
2023-04-20T04:36:35.585Z,93.3979
2023-04-20T04:37:37.618Z,93.5808
2023-04-20T04:38:39.406Z,93.6861
2023-04-20T04:39:41.152Z,93.7199
2023-04-20T04:40:42.874Z,93.4849
2023-04-20T04:41:44.674Z,93.2793
2023-04-20T04:42:46.501Z,93.4821
2023-04-20T04:43:48.255Z,93.6937
2023-04-20T04:44:50.041Z,93.8348
2023-04-20T04:45:51.808Z,94.0480
2023-04-20T04:46:53.589Z,94.0289
2023-04-20T04:47:55.548Z,94.0653
2023-04-20T04:48:57.340Z,94.1100
2023-04-20T04:49:59.080Z,94.4109
2023-04-20T04:51:00.849Z,94.1717
2023-04-20T04:52:02.612Z,94.1256
2023-04-20T04:53:04.500Z,94.0015
2023-04-20T04:54:06.572Z,93.9694
2023-04-20T04:55:08.519Z,93.6605
2023-04-20T04:56:10.359Z,93.4812
2023-04-20T04:57:12.145Z,93.4147
2023-04-20T04:58:14.115Z,93.4886
2023-04-20T04:59:16.153Z,93.6515
2023-04-20T05:00:18.263Z,93.4279
2023-04-20T05:01:20.080Z,93.5507
2023-04-20T05:02:22.068Z,93.7841
2023-04-20T05:03:24.103Z,93.9453
2023-04-20T05:04:26.017Z,93.6776
2023-04-20T05:05:27.800Z,93.2632
2023-04-20T05:06:29.641Z,93.4683
2023-04-20T05:07:31.399Z,93.5296
2023-04-20T05:08:33.171Z,93.5888
2023-04-20T05:09:34.951Z,93.7977
2023-04-20T05:10:36.713Z,93.9118
2023-04-20T05:11:38.485Z,93.4929
2023-04-20T05:12:40.228Z,93.4511
2023-04-20T05:13:42.019Z,93.3680
2023-04-20T05:14:43.818Z,93.2134
2023-04-20T05:15:45.587Z,92.8762
2023-04-20T05:16:47.488Z,92.8209
2023-04-20T05:17:49.291Z,92.8502
2023-04-20T05:18:51.095Z,92.5424
2023-04-20T05:19:52.852Z,92.5407
2023-04-20T05:20:54.608Z,92.6617
2023-04-20T05:21:56.366Z,92.6283
2023-04-20T05:22:58.152Z,92.5724
2023-04-20T05:23:59.892Z,92.6548
2023-04-20T05:25:01.674Z,92.8912
2023-04-20T05:26:03.395Z,92.8822
2023-04-20T05:27:05.223Z,93.0138
2023-04-20T05:28:06.985Z,92.9670
2023-04-20T05:29:08.744Z,92.7995
2023-04-20T05:30:20.357Z,92.5370
2023-04-20T05:31:12.925Z,92.4137
2023-04-20T05:32:14.711Z,92.4876
2023-04-20T05:33:16.522Z,92.7297
2023-04-20T05:34:18.273Z,92.8470
2023-04-20T05:35:20.063Z,92.6721
2023-04-20T05:36:21.779Z,92.5287
2023-04-20T05:37:23.551Z,92.7613
2023-04-20T05:38:25.262Z,93.0044
2023-04-20T05:39:27.044Z,93.0581
2023-04-20T05:40:28.756Z,92.9722
2023-04-20T05:41:30.552Z,92.2663
2023-04-20T05:42:32.255Z,92.2117
2023-04-20T05:43:33.998Z,92.3056
2023-04-20T05:44:35.844Z,91.6885
2023-04-20T05:45:35.958Z,91.5989
2023-04-20T05:46:37.707Z,91.8829
2023-04-20T05:47:39.565Z,92.4260
2023-04-20T05:48:41.279Z,92.4380
2023-04-20T05:49:43.083Z,92.1644
2023-04-20T05:50:44.848Z,92.4183
2023-04-20T05:51:46.647Z,92.5256
2023-04-20T05:52:48.439Z,92.2190
2023-04-20T05:53:50.242Z,92.4577
2023-04-20T05:54:51.992Z,92.4534
2023-04-20T05:55:53.830Z,92.5547
2023-04-20T05:56:55.527Z,92.4725
2023-04-20T05:57:57.320Z,92.4987
2023-04-20T05:58:59.082Z,93.0714
2023-04-20T06:00:00.857Z,93.2657
2023-04-20T06:01:02.608Z,93.1987
2023-04-20T06:02:04.424Z,93.2318
2023-04-20T06:03:06.397Z,93.3032
2023-04-20T06:04:08.737Z,93.3403
2023-04-20T06:05:11.285Z,93.3674
2023-04-20T06:06:14.901Z,93.6005
2023-04-20T06:07:15.258Z,93.7676
2023-04-20T06:08:16.996Z,93.5935
2023-04-20T06:09:18.985Z,93.5652
2023-04-20T06:10:20.907Z,93.6440
2023-04-20T06:11:22.674Z,93.8669
2023-04-20T06:12:26.249Z,93.9243
2023-04-20T06:13:25.798Z,93.8208
2023-04-20T06:14:27.587Z,93.8582
2023-04-20T06:15:29.302Z,93.7656
2023-04-20T06:16:31.089Z,93.7618
2023-04-20T06:17:32.881Z,93.7291
2023-04-20T06:18:34.282Z,93.9131
2023-04-20T06:19:36.070Z,93.7010
2023-04-20T06:20:37.793Z,93.7607
2023-04-20T06:21:39.565Z,93.4818
2023-04-20T06:22:41.299Z,93.4086
2023-04-20T06:23:43.068Z,93.3362
2023-04-20T06:24:44.851Z,93.1943
2023-04-20T06:25:46.691Z,93.1377
2023-04-20T06:26:46.996Z,93.3168
2023-04-20T06:27:50.655Z,93.3219
2023-04-20T06:28:51.143Z,93.2748
2023-04-20T06:29:52.966Z,93.3999
2023-04-20T06:30:54.763Z,93.3325
2023-04-20T06:31:56.509Z,93.4233
2023-04-20T06:32:58.367Z,93.7924
2023-04-20T06:34:00.089Z,93.5468
2023-04-20T06:35:01.911Z,93.4949
2023-04-20T06:36:03.642Z,93.6369
2023-04-20T06:37:05.400Z,93.6558
2023-04-20T06:38:07.225Z,93.2286
2023-04-20T06:39:09.006Z,93.2170
2023-04-20T06:40:10.772Z,93.2117
2023-04-20T06:41:12.518Z,93.3246
2023-04-20T06:42:14.224Z,93.2775
2023-04-20T06:43:15.979Z,93.4311
2023-04-20T06:44:17.735Z,93.2705
2023-04-20T06:45:19.559Z,93.3750
2023-04-20T06:46:21.342Z,93.4941
2023-04-20T06:47:23.149Z,93.3138
2023-04-20T06:48:32.089Z,93.3309
2023-04-20T06:49:27.373Z,93.4275
2023-04-20T06:50:29.139Z,93.3188
2023-04-20T06:51:30.867Z,93.2829
2023-04-20T06:52:32.588Z,93.6475
2023-04-20T06:53:34.319Z,93.7502
2023-04-20T06:54:36.053Z,93.5606
2023-04-20T06:55:37.819Z,93.2672
2023-04-20T06:56:39.587Z,92.9950
2023-04-20T06:57:41.335Z,92.9735
2023-04-20T06:58:43.090Z,92.8864
2023-04-20T06:59:44.871Z,92.1387
2023-04-20T07:00:46.696Z,92.2253
2023-04-20T07:01:48.508Z,92.3893
2023-04-20T07:02:50.366Z,92.6429
2023-04-20T07:03:52.583Z,91.8719
2023-04-20T07:04:54.664Z,91.9315
2023-04-20T07:05:56.499Z,92.0909
2023-04-20T07:06:58.364Z,91.6818
2023-04-20T07:08:00.170Z,91.4740
2023-04-20T07:09:02.057Z,92.0145
2023-04-20T07:10:03.867Z,92.4979
2023-04-20T07:11:05.615Z,92.6538
2023-04-20T07:12:07.423Z,92.7260
2023-04-20T07:13:09.206Z,92.6732
2023-04-20T07:14:10.999Z,92.4884
2023-04-20T07:15:12.760Z,91.9400
2023-04-20T07:16:14.556Z,91.8033
2023-04-20T07:17:16.331Z,91.7653
2023-04-20T07:18:18.173Z,91.8637
2023-04-20T07:19:20.115Z,92.0617
2023-04-20T07:20:21.915Z,92.0398
2023-04-20T07:21:23.684Z,91.8594
2023-04-20T07:22:25.436Z,91.5360
2023-04-20T07:23:27.212Z,91.5622
2023-04-20T07:24:29.059Z,91.8701
2023-04-20T07:25:30.755Z,92.0508
2023-04-20T07:26:32.540Z,91.9073
2023-04-20T07:27:34.314Z,92.2828
2023-04-20T07:28:36.161Z,92.1225
2023-04-20T07:29:37.954Z,92.5230
2023-04-20T07:30:39.719Z,92.4069
2023-04-20T07:31:41.563Z,91.9200
2023-04-20T07:32:43.348Z,92.1947
2023-04-20T07:33:45.142Z,91.8839
2023-04-20T07:34:46.948Z,92.1818
2023-04-20T07:35:48.777Z,91.9966
2023-04-20T07:36:50.577Z,91.8250
2023-04-20T07:37:52.366Z,91.6903
2023-04-20T07:38:54.181Z,91.7212
2023-04-20T07:39:55.981Z,91.6864
2023-04-20T07:40:57.727Z,91.6954
2023-04-20T07:41:59.503Z,91.6806
2023-04-20T07:43:01.276Z,91.8597
2023-04-20T07:44:03.063Z,92.0969
2023-04-20T07:45:04.850Z,91.9077
2023-04-20T07:46:06.683Z,92.0503
2023-04-20T07:47:08.431Z,91.8809
2023-04-20T07:48:10.224Z,91.1731
2023-04-20T07:49:11.985Z,90.6974
2023-04-20T07:50:13.767Z,90.8358
2023-04-20T07:51:15.900Z,91.0743
2023-04-20T07:52:17.963Z,91.4021
2023-04-20T07:53:19.708Z,91.5569
2023-04-20T07:54:21.502Z,91.4306
2023-04-20T07:55:23.252Z,91.1672
2023-04-20T07:56:25.037Z,91.2662
2023-04-20T07:57:26.823Z,90.8555
2023-04-20T07:58:28.591Z,90.9569
2023-04-20T07:59:30.340Z,90.9814
2023-04-20T08:00:32.132Z,90.2033
2023-04-20T08:01:33.952Z,89.9278
2023-04-20T08:02:35.859Z,90.2879
2023-04-20T08:03:37.978Z,90.5969
2023-04-20T08:04:40.617Z,90.5729
2023-04-20T08:05:42.643Z,90.8041
2023-04-20T08:06:44.413Z,90.9160
2023-04-20T08:07:46.197Z,90.8460
2023-04-20T08:08:47.986Z,90.7888
2023-04-20T08:09:49.838Z,91.0130
2023-04-20T08:10:51.621Z,91.0937
2023-04-20T08:11:53.431Z,91.3224
2023-04-20T08:12:55.238Z,91.1394
2023-04-20T08:13:58.346Z,91.3000
2023-04-20T08:14:57.728Z,90.8899
2023-04-20T08:15:59.589Z,90.9809
2023-04-20T08:17:01.612Z,90.9751
2023-04-20T08:18:03.485Z,91.1625
2023-04-20T08:19:05.607Z,91.1080
2023-04-20T08:20:07.370Z,91.2051
2023-04-20T08:21:09.144Z,90.9352
2023-04-20T08:22:11.024Z,90.6711
2023-04-20T08:23:12.748Z,90.7629
2023-04-20T08:24:14.559Z,91.1814
2023-04-20T08:25:16.343Z,91.2302
2023-04-20T08:26:18.127Z,91.1963
2023-04-20T08:27:19.934Z,90.8470
2023-04-20T08:28:33.351Z,90.5853
2023-04-20T08:29:24.060Z,90.8703
2023-04-20T08:30:25.873Z,91.0718
2023-04-20T08:31:26.107Z,90.7717
2023-04-20T08:32:27.919Z,90.5909
2023-04-20T08:33:29.713Z,90.6935
2023-04-20T08:34:31.515Z,90.3360
2023-04-20T08:35:33.328Z,90.3974
2023-04-20T08:36:35.121Z,90.2525
2023-04-20T08:37:36.884Z,90.7100
2023-04-20T08:38:38.808Z,90.5049
2023-04-20T08:39:40.612Z,90.3893
2023-04-20T08:40:42.440Z,90.7638
2023-04-20T08:41:44.224Z,91.2613
2023-04-20T08:42:46.062Z,91.3089
2023-04-20T08:43:47.902Z,91.1155
2023-04-20T08:44:49.745Z,91.2586
2023-04-20T08:45:51.509Z,91.0852
2023-04-20T08:46:53.341Z,91.1403
2023-04-20T08:47:55.136Z,91.2318
2023-04-20T08:48:56.887Z,91.0706
2023-04-20T08:49:58.667Z,91.1347
2023-04-20T08:51:00.470Z,91.0945
2023-04-20T08:52:02.278Z,91.0956
2023-04-20T08:53:04.073Z,90.7820
2023-04-20T08:54:05.941Z,90.8302
2023-04-20T08:55:07.801Z,91.1029
2023-04-20T08:56:09.565Z,91.0995
2023-04-20T08:57:11.350Z,90.8281
2023-04-20T08:58:13.153Z,90.2859
2023-04-20T08:59:14.960Z,90.4255
2023-04-20T09:00:16.712Z,90.2191
2023-04-20T09:01:22.688Z,90.0727
2023-04-20T09:02:21.064Z,89.9391
2023-04-20T09:03:23.125Z,90.2496
2023-04-20T09:04:25.665Z,90.4940
2023-04-20T09:05:25.542Z,90.3918
2023-04-20T09:06:27.307Z,90.6729
2023-04-20T09:07:29.094Z,91.0242
2023-04-20T09:08:30.948Z,90.6646
2023-04-20T09:09:32.754Z,90.6359
2023-04-20T09:10:34.553Z,90.6053
2023-04-20T09:11:36.383Z,90.4242
2023-04-20T09:12:38.220Z,90.6761
2023-04-20T09:13:40.014Z,90.7372
2023-04-20T09:14:41.836Z,90.5683
2023-04-20T09:15:43.595Z,90.4478
2023-04-20T09:16:45.461Z,90.3162
2023-04-20T09:17:47.279Z,90.2158
2023-04-20T09:18:49.078Z,90.3243
2023-04-20T09:19:50.857Z,90.0532
2023-04-20T09:20:52.685Z,90.0823
2023-04-20T09:21:54.468Z,90.3698
2023-04-20T09:22:56.208Z,90.4162
2023-04-20T09:23:58.033Z,90.1285
2023-04-20T09:24:59.808Z,90.1902
2023-04-20T09:26:01.626Z,89.7399
2023-04-20T09:27:03.464Z,89.3299
2023-04-20T09:28:05.253Z,89.7543
2023-04-20T09:29:07.053Z,89.9326
2023-04-20T09:30:08.791Z,89.8404
2023-04-20T09:31:10.561Z,89.7582
2023-04-20T09:32:12.471Z,89.8306
2023-04-20T09:33:14.294Z,89.8345
2023-04-20T09:34:16.450Z,89.3142
2023-04-20T09:35:18.385Z,88.9029
2023-04-20T09:36:20.212Z,88.9923
2023-04-20T09:37:22.030Z,88.7869
2023-04-20T09:38:23.826Z,88.8434
2023-04-20T09:39:25.601Z,89.1811
2023-04-20T09:40:27.409Z,89.3586
2023-04-20T09:41:29.208Z,89.3657
2023-04-20T09:42:31.051Z,89.3391
2023-04-20T09:43:32.786Z,88.9580
2023-04-20T09:44:34.585Z,89.0919
2023-04-20T09:45:36.397Z,88.8771
2023-04-20T09:46:38.167Z,88.7374
2023-04-20T09:47:39.960Z,88.9986
2023-04-20T09:48:41.718Z,89.4651
2023-04-20T09:49:43.510Z,88.8425
2023-04-20T09:50:49.966Z,89.3389
2023-04-20T09:51:47.680Z,89.6481
2023-04-20T09:52:49.433Z,89.5224
2023-04-20T09:53:52.790Z,89.2602
2023-04-20T09:54:52.151Z,89.1999
2023-04-20T09:55:53.981Z,89.5959
2023-04-20T09:56:55.734Z,89.4197
2023-04-20T09:57:57.525Z,89.6305
2023-04-20T09:58:59.316Z,89.8225
2023-04-20T10:00:01.128Z,89.9228
2023-04-20T10:01:02.863Z,90.2186
2023-04-20T10:02:04.719Z,90.0223
2023-04-20T10:03:06.770Z,89.7664
2023-04-20T10:04:09.056Z,89.7393
2023-04-20T10:05:11.275Z,89.8480
2023-04-20T10:06:13.051Z,90.1230
2023-04-20T10:07:14.829Z,89.9259
2023-04-20T10:08:16.624Z,89.7961
2023-04-20T10:09:18.390Z,89.9405
2023-04-20T10:10:20.248Z,90.0463
2023-04-20T10:11:22.118Z,89.9903
2023-04-20T10:12:23.884Z,89.8439
2023-04-20T10:13:25.628Z,89.7477
2023-04-20T10:14:27.424Z,89.8542
2023-04-20T10:15:29.224Z,89.8683
2023-04-20T10:16:31.088Z,89.8494
2023-04-20T10:17:33.024Z,89.9763
2023-04-20T10:18:35.171Z,89.8770
2023-04-20T10:19:37.006Z,90.1108
2023-04-20T10:20:38.804Z,89.8581
2023-04-20T10:21:40.588Z,89.3359
2023-04-20T10:22:42.394Z,89.1614
2023-04-20T10:23:44.188Z,89.2448
2023-04-20T10:24:45.953Z,89.5086
2023-04-20T10:25:47.711Z,89.3187
2023-04-20T10:26:49.499Z,89.5592
2023-04-20T10:27:51.293Z,89.4869
2023-04-20T10:28:53.157Z,89.4283
2023-04-20T10:29:54.955Z,89.4669
2023-04-20T10:30:56.789Z,89.0627
2023-04-20T10:31:58.536Z,89.2776
2023-04-20T10:33:00.396Z,89.6877
2023-04-20T10:34:02.152Z,89.5357
2023-04-20T10:35:03.939Z,89.3756
2023-04-20T10:36:05.734Z,89.9077
2023-04-20T10:37:07.524Z,90.0386
2023-04-20T10:38:09.300Z,90.3424
2023-04-20T10:39:11.109Z,90.0443
2023-04-20T10:40:12.882Z,90.4553
2023-04-20T10:41:14.654Z,90.2300
2023-04-20T10:42:18.166Z,90.2273
2023-04-20T10:43:17.454Z,90.5092
2023-04-20T10:44:19.400Z,90.8364
2023-04-20T10:45:21.261Z,90.9395
2023-04-20T10:46:23.164Z,91.1259
2023-04-20T10:47:25.033Z,91.0717
2023-04-20T10:48:26.851Z,91.2997
2023-04-20T10:49:28.645Z,91.5042
2023-04-20T10:50:30.413Z,91.4193
2023-04-20T10:51:32.229Z,91.7076
2023-04-20T10:52:34.001Z,91.6060
2023-04-20T10:53:35.793Z,91.7163
2023-04-20T10:54:37.608Z,91.8040
2023-04-20T10:55:39.400Z,91.3386
2023-04-20T10:56:41.189Z,91.1010
2023-04-20T10:57:42.999Z,91.1636
2023-04-20T10:58:44.800Z,91.5841
2023-04-20T10:59:46.623Z,92.0483
2023-04-20T11:00:48.355Z,92.1855
2023-04-20T11:01:50.166Z,92.4699
2023-04-20T11:02:52.055Z,92.0812
2023-04-20T11:03:53.959Z,91.6382
2023-04-20T11:04:55.807Z,91.7279
2023-04-20T11:05:57.560Z,91.8839
2023-04-20T11:06:59.356Z,92.0636
2023-04-20T11:08:01.183Z,92.0943
2023-04-20T11:09:02.946Z,92.1307
2023-04-20T11:10:04.772Z,92.4991
2023-04-20T11:11:06.555Z,92.7560
2023-04-20T11:12:08.393Z,92.5144
2023-04-20T11:13:10.272Z,92.4674
2023-04-20T11:14:12.106Z,92.2746
2023-04-20T11:15:13.909Z,92.0172
2023-04-20T11:16:15.762Z,92.1633
2023-04-20T11:17:17.642Z,92.3599
2023-04-20T11:18:19.553Z,92.2821
2023-04-20T11:19:21.401Z,91.9773
2023-04-20T11:20:23.189Z,91.9534
2023-04-20T11:21:24.912Z,91.6883
2023-04-20T11:22:26.707Z,91.9678
2023-04-20T11:23:28.504Z,92.2563
2023-04-20T11:24:30.273Z,92.2054
2023-04-20T11:25:32.143Z,92.3888
2023-04-20T11:26:33.964Z,92.3126
2023-04-20T11:27:35.821Z,92.2404
2023-04-20T11:28:37.640Z,92.2841
2023-04-20T11:29:39.438Z,92.1856
2023-04-20T11:30:41.455Z,92.3866
2023-04-20T11:31:43.417Z,92.3796
2023-04-20T11:32:45.346Z,92.0852
2023-04-20T11:33:47.282Z,92.1320
2023-04-20T11:34:55.926Z,92.0794
2023-04-20T11:35:51.657Z,92.7412
2023-04-20T11:36:53.513Z,92.3979
2023-04-20T11:37:55.345Z,92.1392
2023-04-20T11:38:57.267Z,92.0623
2023-04-20T11:39:59.092Z,92.3564
2023-04-20T11:41:00.854Z,92.0581
2023-04-20T11:42:02.638Z,92.0201
2023-04-20T11:43:04.450Z,91.9542
2023-04-20T11:44:06.263Z,91.9905
2023-04-20T11:45:08.068Z,92.4922
2023-04-20T11:46:09.963Z,91.8584
2023-04-20T11:47:11.763Z,92.1006
2023-04-20T11:48:13.566Z,92.3524
2023-04-20T11:49:15.521Z,92.7439
2023-04-20T11:50:17.523Z,92.8754
2023-04-20T11:51:19.274Z,92.6365
2023-04-20T11:52:21.113Z,92.4973
2023-04-20T11:53:22.960Z,92.6743
2023-04-20T11:54:24.758Z,92.8857
2023-04-20T11:55:26.594Z,92.7518
2023-04-20T11:56:28.648Z,92.4393
2023-04-20T11:57:30.534Z,92.0593
2023-04-20T11:58:32.339Z,91.8914
2023-04-20T11:59:34.220Z,91.8934
2023-04-20T12:00:36.022Z,92.1045
2023-04-20T12:01:37.900Z,92.2399
2023-04-20T12:02:39.877Z,92.2196
2023-04-20T12:03:42.608Z,92.3377
2023-04-20T12:04:42.865Z,92.4904
2023-04-20T12:05:44.935Z,92.4666
2023-04-20T12:06:46.776Z,92.0682
2023-04-20T12:07:48.617Z,91.5833
2023-04-20T12:08:50.495Z,91.3515
2023-04-20T12:09:52.390Z,91.4416
2023-04-20T12:10:56.009Z,91.3945
2023-04-20T12:11:56.651Z,91.4985
2023-04-20T12:12:58.483Z,91.4226
2023-04-20T12:14:00.363Z,91.8023
2023-04-20T12:15:02.217Z,91.4839
2023-04-20T12:16:04.167Z,91.2204
2023-04-20T12:17:06.300Z,91.2562
2023-04-20T12:18:08.227Z,91.4540
2023-04-20T12:19:10.113Z,91.5681
2023-04-20T12:20:11.997Z,92.0569
2023-04-20T12:21:13.842Z,91.5312
2023-04-20T12:22:15.707Z,91.1287
2023-04-20T12:23:17.558Z,91.4080
2023-04-20T12:24:19.390Z,91.5391
2023-04-20T12:25:21.237Z,91.5494
2023-04-20T12:26:34.904Z,92.1441
2023-04-20T12:27:25.549Z,91.9706